createdAt,value
2018-02-12T00:00:24.476Z,1.47
2018-02-12T00:01:24.465Z,1.42
2018-02-12T00:02:24.431Z,1.29
2018-02-12T00:03:24.415Z,1.34
2018-02-12T00:04:24.387Z,1.34
2018-02-12T00:05:24.368Z,1.24
2018-02-12T00:06:24.343Z,1.30
2018-02-12T00:07:24.326Z,1.22
2018-02-12T00:08:24.302Z,1.26
2018-02-12T00:09:24.297Z,1.26
2018-02-12T00:10:24.265Z,1.14
2018-02-12T00:11:24.243Z,1.15
2018-02-12T00:12:24.215Z,1.22
2018-02-12T00:13:24.194Z,1.04
2018-02-12T00:14:24.173Z,1.14
2018-02-12T00:15:24.155Z,1.04
2018-02-12T00:16:24.136Z,1.08
2018-02-12T00:17:24.113Z,1.00
2018-02-12T00:18:24.089Z,1.05
2018-02-12T00:19:24.066Z,1.11
2018-02-12T00:20:24.047Z,0.91
2018-02-12T00:21:24.022Z,0.94
2018-02-12T00:22:24.000Z,0.94
2018-02-12T00:23:23.983Z,1.08
2018-02-12T00:24:23.958Z,0.98
2018-02-12T00:25:23.938Z,0.87
2018-02-12T00:26:23.917Z,0.87
2018-02-12T00:27:23.896Z,0.86
2018-02-12T00:28:23.876Z,0.86
2018-02-12T00:29:23.856Z,0.87
2018-02-12T00:30:23.832Z,0.80
2018-02-12T00:31:23.809Z,0.83
2018-02-12T00:32:23.788Z,0.84
2018-02-12T00:33:23.766Z,0.83
2018-02-12T00:34:23.749Z,0.83
2018-02-12T00:35:23.722Z,0.72
2018-02-12T00:36:23.703Z,0.73
2018-02-12T00:37:23.685Z,0.69
2018-02-12T00:38:23.658Z,0.70
2018-02-12T00:39:23.639Z,0.65
2018-02-12T00:40:23.616Z,0.58
2018-02-12T00:41:23.597Z,0.61
2018-02-12T00:42:23.575Z,0.61
2018-02-12T00:43:23.550Z,0.57
2018-02-12T00:44:23.531Z,0.47
2018-02-12T00:45:23.506Z,0.50
2018-02-12T00:46:23.484Z,0.57
2018-02-12T00:47:23.464Z,0.58
2018-02-12T00:48:23.444Z,0.62
2018-02-12T00:49:23.426Z,0.57
2018-02-12T00:50:23.401Z,0.53
2018-02-12T00:51:23.380Z,0.53
2018-02-12T00:52:23.357Z,0.62
2018-02-12T00:53:23.333Z,0.60
2018-02-12T00:54:23.311Z,0.60
2018-02-12T00:55:23.294Z,0.50
2018-02-12T00:56:23.277Z,0.47
2018-02-12T00:57:23.259Z,0.47
2018-02-12T00:58:23.225Z,0.42
2018-02-12T00:59:23.205Z,0.46
2018-02-12T01:00:23.186Z,0.46
2018-02-12T01:01:23.164Z,0.39
2018-02-12T01:02:23.138Z,0.53
2018-02-12T01:03:23.122Z,0.42
2018-02-12T01:04:23.100Z,0.39
2018-02-12T01:05:23.073Z,0.35
2018-02-12T01:06:23.061Z,0.35
2018-02-12T01:07:23.029Z,0.39
2018-02-12T01:08:23.012Z,0.29
2018-02-12T01:09:22.990Z,0.33
2018-02-12T01:10:22.966Z,0.35
2018-02-12T01:11:22.948Z,0.36
2018-02-12T01:12:22.931Z,0.33
2018-02-12T01:13:22.900Z,0.33
2018-02-12T01:14:22.876Z,0.33
2018-02-12T01:15:22.858Z,0.31
2018-02-12T01:16:22.840Z,0.32
2018-02-12T01:17:22.816Z,0.24
2018-02-12T01:18:22.791Z,0.29
2018-02-12T01:19:22.773Z,0.33
2018-02-12T01:20:22.750Z,0.26
2018-02-12T01:21:22.728Z,0.33
2018-02-12T01:22:22.743Z,0.29
2018-02-12T01:23:22.686Z,0.24
2018-02-12T01:24:22.741Z,0.24
2018-02-12T01:25:22.640Z,0.23
2018-02-12T01:26:22.752Z,0.23
2018-02-12T01:27:22.595Z,0.24
2018-02-12T01:28:22.576Z,0.18
2018-02-12T01:29:22.551Z,0.15
2018-02-12T01:30:22.533Z,0.21
2018-02-12T01:31:22.514Z,0.15
2018-02-12T01:32:22.505Z,0.18
2018-02-12T01:33:22.465Z,0.20
2018-02-12T01:34:22.440Z,0.14
2018-02-12T01:35:22.426Z,0.14
2018-02-12T01:36:22.401Z,0.11
2018-02-12T01:37:22.377Z,0.13
2018-02-12T01:38:22.361Z,0.18
2018-02-12T01:39:22.335Z,0.15
2018-02-12T01:40:22.310Z,0.15
2018-02-12T01:41:22.290Z,0.11
2018-02-12T01:42:22.282Z,0.14
2018-02-12T01:43:22.248Z,0.17
2018-02-12T01:44:22.228Z,0.13
2018-02-12T01:45:22.206Z,0.02
2018-02-12T01:46:22.184Z,0.13
2018-02-12T01:47:22.159Z,0.08
2018-02-12T01:48:22.138Z,0.03
2018-02-12T01:49:22.118Z,0.15
2018-02-12T01:50:22.098Z,0.08
2018-02-12T01:51:22.074Z,0.10
2018-02-12T01:52:22.049Z,0.03
2018-02-12T01:53:22.030Z,0.02
2018-02-12T01:54:22.004Z,0.08
2018-02-12T01:55:21.985Z,0.07
2018-02-12T01:56:21.965Z,0.07
2018-02-12T01:57:21.942Z,0.11
2018-02-12T01:58:21.918Z,0.10
2018-02-12T01:59:21.906Z,0.04
2018-02-12T02:00:21.927Z,-0.01
2018-02-12T02:01:21.855Z,0.08
2018-02-12T02:02:21.831Z,0.00
2018-02-12T02:03:21.810Z,-0.10
2018-02-12T02:04:21.792Z,-0.10
2018-02-12T02:05:21.779Z,-0.04
2018-02-12T02:06:21.746Z,0.02
2018-02-12T02:07:21.722Z,-0.15
2018-02-12T02:08:21.709Z,-0.05
2018-02-12T02:09:21.681Z,-0.04
2018-02-12T02:10:21.658Z,-0.08
2018-02-12T02:11:21.633Z,-0.07
2018-02-12T02:12:21.617Z,-0.04
2018-02-12T02:13:21.592Z,-0.07
2018-02-12T02:14:21.567Z,-0.15
2018-02-12T02:15:21.544Z,-0.22
2018-02-12T02:16:21.524Z,-0.22
2018-02-12T02:17:21.520Z,-0.14
2018-02-12T02:18:21.483Z,-0.21
2018-02-12T02:19:21.459Z,-0.19
2018-02-12T02:20:21.447Z,-0.14
2018-02-12T02:21:21.418Z,-0.23
2018-02-12T02:22:21.393Z,-0.28
2018-02-12T02:23:21.378Z,-0.25
2018-02-12T02:24:21.374Z,-0.29
2018-02-12T02:25:21.326Z,-0.25
2018-02-12T02:26:21.307Z,-0.28
2018-02-12T02:27:21.285Z,-0.29
2018-02-12T02:28:21.266Z,-0.36
2018-02-12T02:29:21.243Z,-0.29
2018-02-12T02:30:21.220Z,-0.39
2018-02-12T02:31:21.196Z,-0.34
2018-02-12T02:32:21.182Z,-0.37
2018-02-12T02:33:21.150Z,-0.39
2018-02-12T02:34:21.130Z,-0.40
2018-02-12T02:35:21.105Z,-0.46
2018-02-12T02:36:21.087Z,-0.46
2018-02-12T02:37:21.064Z,-0.37
2018-02-12T02:38:21.044Z,-0.49
2018-02-12T02:39:21.022Z,-0.47
2018-02-12T02:40:20.999Z,-0.46
2018-02-12T02:41:20.976Z,-0.54
2018-02-12T02:42:20.956Z,-0.60
2018-02-12T02:43:20.939Z,-0.57
2018-02-12T02:44:20.919Z,-0.62
2018-02-12T02:45:20.888Z,-0.75
2018-02-12T02:46:20.866Z,-0.75
2018-02-12T02:47:20.846Z,-0.80
2018-02-12T02:48:20.824Z,-0.89
2018-02-12T02:49:20.800Z,-0.86
2018-02-12T02:50:20.780Z,-0.85
2018-02-12T02:51:20.759Z,-0.76
2018-02-12T02:52:20.736Z,-0.89
2018-02-12T02:53:20.718Z,-0.86
2018-02-12T02:54:20.690Z,-0.89
2018-02-12T02:55:20.667Z,-0.86
2018-02-12T02:56:20.652Z,-0.89
2018-02-12T02:57:20.677Z,-0.92
2018-02-12T02:58:20.603Z,-0.95
2018-02-12T02:59:20.588Z,-1.01
2018-02-12T03:00:20.582Z,-1.04
2018-02-12T03:01:20.636Z,-1.07
2018-02-12T03:02:20.512Z,-1.09
2018-02-12T03:03:20.549Z,-1.01
2018-02-12T03:04:20.480Z,-1.04
2018-02-12T03:05:20.451Z,-1.01
2018-02-12T03:06:20.424Z,-0.99
2018-02-12T03:07:20.405Z,-1.02
2018-02-12T03:08:20.388Z,-1.07
2018-02-12T03:09:20.366Z,-0.99
2018-02-12T03:10:20.349Z,-1.01
2018-02-12T03:11:20.423Z,-1.01
2018-02-12T03:12:20.394Z,-0.95
2018-02-12T03:13:20.276Z,-0.92
2018-02-12T03:14:20.271Z,-0.91
2018-02-12T03:15:20.428Z,-0.95
2018-02-12T03:16:20.209Z,-0.98
2018-02-12T03:17:20.335Z,-0.85
2018-02-12T03:18:20.165Z,-1.01
2018-02-12T03:19:20.143Z,-1.02
2018-02-12T03:20:20.121Z,-0.99
2018-02-12T03:21:20.097Z,-1.05
2018-02-12T03:22:20.074Z,-1.07
2018-02-12T03:23:20.059Z,-1.10
2018-02-12T03:24:20.033Z,-1.04
2018-02-12T03:25:20.009Z,-1.10
2018-02-12T03:26:19.984Z,-1.07
2018-02-12T03:27:19.967Z,-0.98
2018-02-12T03:28:19.942Z,-0.98
2018-02-12T03:29:19.920Z,-0.98
2018-02-12T03:30:19.896Z,-1.01
2018-02-12T03:31:19.911Z,-0.89
2018-02-12T03:32:19.863Z,-0.95
2018-02-12T03:33:19.885Z,-0.91
2018-02-12T03:34:19.810Z,-0.83
2018-02-12T03:35:19.788Z,-0.83
2018-02-12T03:36:19.765Z,-0.83
2018-02-12T03:37:19.758Z,-0.82
2018-02-12T03:38:19.725Z,-0.83
2018-02-12T03:39:19.705Z,-0.83
2018-02-12T03:40:19.681Z,-0.86
2018-02-12T03:41:19.655Z,-0.86
2018-02-12T03:42:19.636Z,-0.83
2018-02-12T03:43:19.610Z,-0.83
2018-02-12T03:44:19.592Z,-0.83
2018-02-12T03:45:19.568Z,-0.79
2018-02-12T03:46:19.545Z,-0.86
2018-02-12T03:47:19.526Z,-0.85
2018-02-12T03:48:19.502Z,-0.86
2018-02-12T03:49:19.489Z,-0.91
2018-02-12T03:50:19.457Z,-0.83
2018-02-12T03:51:19.440Z,-0.86
2018-02-12T03:52:19.416Z,-0.92
2018-02-12T03:53:19.390Z,-0.83
2018-02-12T03:54:19.366Z,-0.83
2018-02-12T03:55:19.347Z,-0.80
2018-02-12T03:56:19.326Z,-0.85
2018-02-12T03:57:19.302Z,-0.73
2018-02-12T03:58:19.285Z,-0.78
2018-02-12T03:59:19.259Z,-0.75
2018-02-12T04:00:19.236Z,-0.75
2018-02-12T04:01:19.211Z,-0.65
2018-02-12T04:02:19.193Z,-0.67
2018-02-12T04:03:19.168Z,-0.60
2018-02-12T04:04:19.149Z,-0.69
2018-02-12T04:05:19.126Z,-0.67
2018-02-12T04:06:19.105Z,-0.57
2018-02-12T04:07:19.085Z,-0.69
2018-02-12T04:08:19.063Z,-0.70
2018-02-12T04:09:19.033Z,-0.64
2018-02-12T04:10:19.015Z,-0.67
2018-02-12T04:11:18.994Z,-0.69
2018-02-12T04:12:18.972Z,-0.57
2018-02-12T04:13:18.947Z,-0.64
2018-02-12T04:14:18.927Z,-0.55
2018-02-12T04:15:18.912Z,-0.65
2018-02-12T04:16:18.881Z,-0.61
2018-02-12T04:17:18.866Z,-0.57
2018-02-12T04:18:18.840Z,-0.61
2018-02-12T04:19:18.820Z,-0.60
2018-02-12T04:20:18.796Z,-0.60
2018-02-12T04:21:18.771Z,-0.62
2018-02-12T04:22:18.747Z,-0.55
2018-02-12T04:23:18.725Z,-0.55
2018-02-12T04:24:18.707Z,-0.69
2018-02-12T04:25:18.684Z,-0.69
2018-02-12T04:26:18.657Z,-0.64
2018-02-12T04:27:18.636Z,-0.61
2018-02-12T04:28:18.617Z,-0.64
2018-02-12T04:29:18.597Z,-0.73
2018-02-12T04:30:18.572Z,-0.64
2018-02-12T04:31:18.570Z,-0.69
2018-02-12T04:32:18.527Z,-0.69
2018-02-12T04:33:18.516Z,-0.72
2018-02-12T04:34:18.485Z,-0.78
2018-02-12T04:35:18.464Z,-0.78
2018-02-12T04:36:18.445Z,-0.78
2018-02-12T04:37:18.416Z,-0.78
2018-02-12T04:38:18.396Z,-0.75
2018-02-12T04:39:18.376Z,-0.72
2018-02-12T04:40:18.352Z,-0.73
2018-02-12T04:41:18.334Z,-0.86
2018-02-12T04:42:18.305Z,-0.73
2018-02-12T04:43:18.285Z,-0.82
2018-02-12T04:44:18.276Z,-0.79
2018-02-12T04:45:18.238Z,-0.73
2018-02-12T04:46:18.218Z,-0.85
2018-02-12T04:47:18.194Z,-0.82
2018-02-12T04:48:50.409Z,-0.95
2018-02-12T04:49:50.695Z,-0.98
2018-02-12T04:50:50.276Z,-1.01
2018-02-12T04:51:50.257Z,-0.95
2018-02-12T04:52:50.233Z,-1.01
2018-02-12T04:53:50.210Z,-1.02
2018-02-12T04:54:50.186Z,-1.07
2018-02-12T04:55:50.165Z,-0.99
2018-02-12T04:56:50.148Z,-1.05
2018-02-12T04:57:50.125Z,-0.89
2018-02-12T04:58:50.109Z,-0.83
2018-02-12T04:59:50.076Z,-0.86
2018-02-12T05:00:50.053Z,-0.76
2018-02-12T05:01:50.031Z,-0.83
2018-02-12T05:02:50.012Z,-0.73
2018-02-12T05:03:49.989Z,-0.65
2018-02-12T05:04:49.967Z,-0.62
2018-02-12T05:05:49.948Z,-0.64
2018-02-12T05:06:49.926Z,-0.60
2018-02-12T05:07:49.904Z,-0.61
2018-02-12T05:08:49.876Z,-0.61
2018-02-12T05:09:49.854Z,-0.52
2018-02-12T05:10:49.830Z,-0.54
2018-02-12T05:11:49.815Z,-0.44
2018-02-12T05:12:49.809Z,-0.44
2018-02-12T05:13:49.766Z,-0.34
2018-02-12T05:14:49.744Z,-0.37
2018-02-12T05:15:49.723Z,-0.25
2018-02-12T05:16:49.713Z,-0.26
2018-02-12T05:17:49.708Z,-0.19
2018-02-12T05:18:49.656Z,-0.29
2018-02-12T05:19:49.634Z,-0.22
2018-02-12T05:20:49.618Z,-0.23
2018-02-12T05:21:49.592Z,-0.19
2018-02-12T05:22:49.567Z,-0.11
2018-02-12T05:23:49.547Z,-0.16
2018-02-12T05:24:49.523Z,-0.16
2018-02-12T05:25:49.505Z,-0.16
2018-02-12T05:26:49.482Z,-0.08
2018-02-12T05:27:49.458Z,-0.08
2018-02-12T05:28:49.432Z,-0.07
2018-02-12T05:29:49.410Z,-0.07
2018-02-12T05:30:49.394Z,-0.22
2018-02-12T05:31:49.370Z,-0.14
2018-02-12T05:32:49.347Z,-0.16
2018-02-12T05:33:49.323Z,-0.25
2018-02-12T05:34:49.302Z,-0.18
2018-02-12T05:35:49.282Z,-0.23
2018-02-12T05:36:49.266Z,-0.33
2018-02-12T05:37:49.245Z,-0.26
2018-02-12T05:38:49.212Z,-0.26
2018-02-12T05:39:49.194Z,-0.25
2018-02-12T05:40:49.168Z,-0.25
2018-02-12T05:41:49.147Z,-0.29
2018-02-12T05:42:49.125Z,-0.25
2018-02-12T05:43:49.105Z,-0.29
2018-02-12T05:44:49.092Z,-0.23
2018-02-12T05:45:49.059Z,-0.31
2018-02-12T05:46:49.038Z,-0.31
2018-02-12T05:47:49.017Z,-0.31
2018-02-12T05:48:48.995Z,-0.34
2018-02-12T05:49:48.983Z,-0.36
2018-02-12T05:50:48.950Z,-0.31
2018-02-12T05:51:48.934Z,-0.33
2018-02-12T05:52:48.916Z,-0.21
2018-02-12T05:53:48.887Z,-0.26
2018-02-12T05:54:48.862Z,-0.25
2018-02-12T05:55:48.839Z,-0.16
2018-02-12T05:56:48.822Z,-0.25
2018-02-12T05:57:48.799Z,-0.15
2018-02-12T05:58:48.779Z,-0.19
2018-02-12T05:59:48.750Z,-0.16
2018-02-12T06:00:48.733Z,-0.07
2018-02-12T06:01:48.713Z,0.02
2018-02-12T06:02:48.792Z,0.07
2018-02-12T06:03:48.664Z,0.15
2018-02-12T06:04:48.647Z,0.11
2018-02-12T06:05:48.621Z,0.20
2018-02-12T06:06:48.602Z,0.24
2018-02-12T06:07:48.576Z,0.33
2018-02-12T06:08:48.556Z,0.39
2018-02-12T06:09:48.536Z,0.28
2018-02-12T06:10:48.515Z,0.47
2018-02-12T06:11:48.495Z,0.47
2018-02-12T06:12:48.576Z,0.41
2018-02-12T06:13:48.446Z,0.42
2018-02-12T06:14:48.427Z,0.50
2018-02-12T06:15:48.404Z,0.58
2018-02-12T06:16:48.391Z,0.57
2018-02-12T06:17:48.363Z,0.57
2018-02-12T06:18:48.438Z,0.57
2018-02-12T06:19:48.313Z,0.53
2018-02-12T06:20:48.295Z,0.57
2018-02-12T06:21:48.276Z,0.62
2018-02-12T06:22:48.312Z,0.60
2018-02-12T06:23:48.226Z,0.65
2018-02-12T06:24:48.366Z,0.60
2018-02-12T06:25:48.187Z,0.60
2018-02-12T06:26:48.181Z,0.73
2018-02-12T06:27:48.147Z,0.62
2018-02-12T06:28:48.248Z,0.62
2018-02-12T06:29:48.095Z,0.72
2018-02-12T06:30:48.076Z,0.69
2018-02-12T06:31:48.053Z,0.62
2018-02-12T06:32:48.034Z,0.70
2018-02-12T06:33:48.010Z,0.68
2018-02-12T06:34:47.994Z,0.66
2018-02-12T06:35:48.018Z,0.66
2018-02-12T06:36:47.945Z,0.75
2018-02-12T06:37:47.931Z,0.75
2018-02-12T06:38:47.904Z,0.70
2018-02-12T06:39:47.879Z,0.84
2018-02-12T06:40:47.965Z,0.79
2018-02-12T06:41:47.836Z,0.88
2018-02-12T06:42:47.817Z,0.79
2018-02-12T06:43:48.042Z,0.87
2018-02-12T06:44:47.836Z,0.86
2018-02-12T06:45:47.745Z,0.91
2018-02-12T06:46:47.737Z,0.91
2018-02-12T06:47:47.703Z,1.02
2018-02-12T06:48:47.943Z,0.93
2018-02-12T06:49:47.665Z,0.93
2018-02-12T06:50:47.642Z,1.05
2018-02-12T06:51:47.615Z,1.04
2018-02-12T06:52:47.597Z,1.00
2018-02-12T06:53:47.577Z,1.05
2018-02-12T06:54:47.556Z,1.09
2018-02-12T06:55:47.532Z,1.14
2018-02-12T06:56:47.507Z,1.15
2018-02-12T06:57:47.486Z,1.16
2018-02-12T06:58:47.463Z,1.16
2018-02-12T06:59:47.444Z,1.11
2018-02-12T07:00:47.427Z,1.12
2018-02-12T07:01:47.405Z,1.22
2018-02-12T07:02:47.375Z,1.15
2018-02-12T07:03:47.356Z,1.12
2018-02-12T07:04:47.589Z,1.15
2018-02-12T07:05:47.316Z,1.16
2018-02-12T07:06:47.294Z,1.16
2018-02-12T07:07:47.268Z,1.18
2018-02-12T07:08:47.258Z,1.12
2018-02-12T07:09:47.227Z,1.18
2018-02-12T07:10:47.208Z,1.16
2018-02-12T07:11:47.182Z,1.15
2018-02-12T07:12:47.162Z,1.23
2018-02-12T07:13:47.144Z,1.27
2018-02-12T07:14:47.118Z,1.29
2018-02-12T07:15:47.104Z,1.24
2018-02-12T07:16:47.075Z,1.32
2018-02-12T07:17:47.053Z,1.27
2018-02-12T07:18:47.032Z,1.34
2018-02-12T07:19:47.008Z,1.37
2018-02-12T07:20:46.993Z,1.32
2018-02-12T07:21:46.969Z,1.34
2018-02-12T07:22:46.945Z,1.48
2018-02-12T07:23:46.922Z,1.47
2018-02-12T07:24:46.905Z,1.47
2018-02-12T07:25:47.144Z,1.48
2018-02-12T07:26:46.860Z,1.48
2018-02-12T07:27:46.834Z,1.50
2018-02-12T07:28:46.818Z,1.48
2018-02-12T07:29:46.795Z,1.58
2018-02-12T07:30:47.029Z,1.51
2018-02-12T07:31:46.760Z,1.69
2018-02-12T07:32:46.731Z,1.73
2018-02-12T07:33:46.704Z,1.73
2018-02-12T07:34:46.688Z,1.70
2018-02-12T07:35:46.915Z,1.76
2018-02-12T07:36:46.645Z,1.73
2018-02-12T07:37:46.622Z,1.73
2018-02-12T07:38:46.606Z,1.76
2018-02-12T07:39:46.582Z,1.83
2018-02-12T07:40:46.556Z,1.81
2018-02-12T07:41:46.893Z,1.90
2018-02-12T07:42:46.517Z,1.88
2018-02-12T07:43:46.494Z,1.99
2018-02-12T07:44:46.469Z,1.99
2018-02-12T07:45:46.448Z,2.03
2018-02-12T07:46:46.804Z,2.03
2018-02-12T07:47:46.413Z,2.09
2018-02-12T07:48:46.399Z,2.06
2018-02-12T07:49:46.364Z,2.06
2018-02-12T07:50:46.344Z,2.06
2018-02-12T07:51:46.371Z,2.09
2018-02-12T07:52:46.304Z,2.20
2018-02-12T07:53:46.280Z,2.18
2018-02-12T07:54:46.259Z,2.20
2018-02-12T07:55:46.237Z,2.28
2018-02-12T07:56:46.215Z,2.30
2018-02-12T07:57:46.204Z,2.21
2018-02-12T07:58:46.176Z,2.27
2018-02-12T07:59:46.152Z,2.20
2018-02-12T08:00:46.137Z,2.36
2018-02-12T08:01:46.161Z,2.30
2018-02-12T08:02:46.088Z,2.27
2018-02-12T08:03:46.066Z,2.30
2018-02-12T08:04:46.059Z,2.27
2018-02-12T08:05:46.047Z,2.27
2018-02-12T08:06:46.002Z,2.25
2018-02-12T08:07:46.233Z,2.28
2018-02-12T08:08:45.964Z,2.34
2018-02-12T08:09:45.939Z,2.27
2018-02-12T08:10:45.924Z,2.28
2018-02-12T08:11:45.896Z,2.35
2018-02-12T08:12:46.127Z,2.45
2018-02-12T08:13:45.856Z,2.48
2018-02-12T08:14:45.835Z,2.42
2018-02-12T08:15:45.812Z,2.60
2018-02-12T08:16:45.797Z,2.56
2018-02-12T08:17:46.020Z,2.64
2018-02-12T08:18:45.751Z,2.63
2018-02-12T08:19:45.728Z,2.66
2018-02-12T08:20:45.710Z,2.75
2018-02-12T08:21:45.690Z,2.93
2018-02-12T08:22:45.916Z,2.97
2018-02-12T08:23:45.645Z,3.02
2018-02-12T08:24:45.626Z,3.06
2018-02-12T08:25:45.604Z,3.11
2018-02-12T08:26:45.581Z,3.08
2018-02-12T08:27:45.811Z,3.02
2018-02-12T08:28:45.543Z,3.02
2018-02-12T08:29:45.520Z,2.95
2018-02-12T08:30:45.504Z,2.85
2018-02-12T08:31:45.477Z,2.82
2018-02-12T08:32:45.463Z,2.92
2018-02-12T08:33:45.437Z,2.93
2018-02-12T08:34:45.416Z,2.84
2018-02-12T08:35:45.395Z,2.93
2018-02-12T08:36:45.376Z,2.90
2018-02-12T08:37:45.359Z,2.90
2018-02-12T08:38:45.333Z,2.87
2018-02-12T08:39:45.314Z,2.96
2018-02-12T08:40:45.295Z,2.96
2018-02-12T08:41:45.273Z,2.92
2018-02-12T08:42:45.250Z,2.84
2018-02-12T08:43:45.491Z,2.84
2018-02-12T08:44:45.210Z,2.89
2018-02-12T08:45:45.190Z,2.90
2018-02-12T08:46:45.184Z,2.92
2018-02-12T08:47:45.147Z,2.85
2018-02-12T08:48:45.378Z,2.90
2018-02-12T08:49:45.114Z,2.87
2018-02-12T08:50:45.086Z,2.92
2018-02-12T08:51:45.064Z,2.97
2018-02-12T08:52:45.047Z,2.97
2018-02-12T08:53:45.025Z,2.95
2018-02-12T08:54:45.013Z,2.96
2018-02-12T08:55:44.986Z,2.90
2018-02-12T08:56:44.964Z,2.85
2018-02-12T08:57:44.940Z,2.93
2018-02-12T08:58:44.922Z,2.95
2018-02-12T08:59:44.899Z,2.85
2018-02-12T09:00:44.880Z,2.82
2018-02-12T09:01:44.861Z,2.95
2018-02-12T09:02:44.836Z,2.82
2018-02-12T09:03:44.925Z,2.92
2018-02-12T09:04:44.797Z,2.90
2018-02-12T09:05:44.774Z,2.84
2018-02-12T09:06:44.755Z,2.93
2018-02-12T09:07:44.733Z,3.00
2018-02-12T09:08:44.972Z,2.97
2018-02-12T09:09:44.743Z,3.02
2018-02-12T09:10:44.673Z,3.02
2018-02-12T09:11:44.654Z,3.10
2018-02-12T09:12:44.635Z,3.05
2018-02-12T09:13:44.608Z,3.14
2018-02-12T09:14:44.604Z,3.13
2018-02-12T09:15:44.571Z,3.23
2018-02-12T09:16:44.546Z,3.10
2018-02-12T09:17:44.530Z,3.18
2018-02-12T09:18:44.514Z,3.17
2018-02-12T09:19:44.487Z,3.24
2018-02-12T09:20:44.489Z,3.18
2018-02-12T09:21:44.564Z,3.15
2018-02-12T09:22:44.423Z,3.06
2018-02-12T09:23:44.411Z,3.20
2018-02-12T09:24:44.380Z,3.15
2018-02-12T09:25:44.365Z,3.10
2018-02-12T09:26:44.339Z,3.20
2018-02-12T09:27:44.318Z,3.18
2018-02-12T09:28:44.301Z,3.21
2018-02-12T09:29:44.277Z,3.17
2018-02-12T09:30:44.261Z,3.11
2018-02-12T09:31:44.235Z,3.17
2018-02-12T09:32:44.220Z,3.14
2018-02-12T09:33:44.192Z,3.11
2018-02-12T09:34:44.173Z,3.18
2018-02-12T09:35:44.158Z,3.20
2018-02-12T09:36:44.134Z,3.15
2018-02-12T09:37:44.109Z,3.28
2018-02-12T09:38:44.091Z,3.20
2018-02-12T09:39:44.069Z,3.26
2018-02-12T09:40:44.050Z,3.28
2018-02-12T09:41:44.038Z,3.21
2018-02-12T09:42:44.005Z,3.21
2018-02-12T09:43:43.985Z,3.10
2018-02-12T09:44:43.967Z,3.13
2018-02-12T09:45:43.946Z,3.20
2018-02-12T09:46:43.931Z,3.17
2018-02-12T09:47:43.903Z,3.24
2018-02-12T09:48:43.884Z,3.29
2018-02-12T09:49:43.861Z,3.43
2018-02-12T09:50:43.842Z,3.33
2018-02-12T09:51:43.824Z,3.42
2018-02-12T09:52:43.801Z,3.42
2018-02-12T09:53:43.792Z,3.45
2018-02-12T09:54:43.759Z,3.57
2018-02-12T09:55:43.737Z,3.60
2018-02-12T09:56:43.719Z,3.58
2018-02-12T09:57:43.695Z,3.54
2018-02-12T09:58:43.715Z,3.54
2018-02-12T09:59:43.904Z,3.60
2018-02-12T10:00:43.642Z,3.57
2018-02-12T10:01:43.618Z,3.58
2018-02-12T10:02:43.595Z,3.69
2018-02-12T10:03:43.575Z,3.65
2018-02-12T10:04:43.802Z,3.61
2018-02-12T10:05:43.534Z,3.61
2018-02-12T10:06:43.540Z,3.60
2018-02-12T10:07:43.491Z,3.61
2018-02-12T10:08:43.483Z,3.72
2018-02-12T10:09:43.457Z,3.62
2018-02-12T10:10:43.429Z,3.62
2018-02-12T10:11:43.413Z,3.66
2018-02-12T10:12:43.387Z,3.62
2018-02-12T10:13:43.367Z,3.62
2018-02-12T10:14:43.345Z,3.62
2018-02-12T10:15:43.324Z,3.68
2018-02-12T10:16:43.308Z,3.61
2018-02-12T10:17:43.284Z,3.79
2018-02-12T10:18:43.266Z,3.83
2018-02-12T10:19:43.247Z,3.79
2018-02-12T10:20:43.232Z,3.68
2018-02-12T10:21:43.204Z,3.73
2018-02-12T10:22:43.187Z,3.76
2018-02-12T10:23:43.162Z,3.79
2018-02-12T10:24:43.142Z,3.93
2018-02-12T10:25:43.126Z,4.11
2018-02-12T10:26:43.105Z,4.48
2018-02-12T10:27:43.084Z,5.02
2018-02-12T10:28:43.066Z,5.30
2018-02-12T10:29:43.041Z,6.52
2018-02-12T10:30:43.040Z,6.76
2018-02-12T10:31:43.002Z,6.48
2018-02-12T10:32:42.996Z,6.43
2018-02-12T10:33:42.969Z,6.15
2018-02-12T10:34:42.944Z,6.08
2018-02-12T10:35:43.178Z,5.97
2018-02-12T10:36:42.906Z,5.85
2018-02-12T10:37:42.895Z,5.78
2018-02-12T10:38:42.866Z,5.81
2018-02-12T10:39:42.849Z,5.76
2018-02-12T10:40:42.835Z,5.89
2018-02-12T10:41:42.809Z,5.81
2018-02-12T10:42:42.795Z,5.65
2018-02-12T10:43:42.776Z,5.64
2018-02-12T10:44:42.756Z,5.53
2018-02-12T10:45:42.986Z,5.31
2018-02-12T10:46:42.733Z,5.20
2018-02-12T10:47:42.700Z,5.04
2018-02-12T10:48:42.681Z,5.15
2018-02-12T10:49:42.666Z,5.03
2018-02-12T10:50:42.897Z,5.02
2018-02-12T10:51:42.623Z,5.04
2018-02-12T10:52:42.608Z,5.03
2018-02-12T10:53:42.585Z,5.06
2018-02-12T10:54:42.582Z,5.21
2018-02-12T10:55:42.551Z,5.20
2018-02-12T10:56:42.564Z,5.22
2018-02-12T10:57:42.524Z,5.27
2018-02-12T10:58:42.495Z,5.33
2018-02-12T10:59:42.485Z,5.33
2018-02-12T11:00:42.457Z,5.25
2018-02-12T11:01:42.435Z,5.18
2018-02-12T11:02:42.422Z,5.04
2018-02-12T11:03:42.403Z,5.13
2018-02-12T11:04:42.384Z,5.09
2018-02-12T11:05:42.373Z,5.10
2018-02-12T11:06:42.343Z,5.04
2018-02-12T11:07:42.324Z,5.07
2018-02-12T11:08:42.304Z,5.02
2018-02-12T11:09:42.294Z,4.89
2018-02-12T11:10:42.270Z,4.84
2018-02-12T11:11:42.648Z,4.94
2018-02-12T11:12:42.229Z,4.88
2018-02-12T11:13:42.208Z,4.86
2018-02-12T11:14:42.192Z,4.84
2018-02-12T11:15:42.170Z,4.96
2018-02-12T11:16:42.156Z,5.03
2018-02-12T11:17:42.135Z,5.10
2018-02-12T11:18:42.117Z,5.21
2018-02-12T11:19:42.097Z,5.33
2018-02-12T11:20:42.075Z,5.51
2018-02-12T11:21:42.079Z,5.64
2018-02-12T11:22:42.044Z,5.67
2018-02-12T11:23:42.027Z,5.82
2018-02-12T11:24:42.000Z,5.90
2018-02-12T11:25:41.985Z,6.15
2018-02-12T11:26:41.963Z,6.79
2018-02-12T11:27:41.947Z,7.37
2018-02-12T11:28:41.924Z,7.20
2018-02-12T11:29:41.916Z,7.16
2018-02-12T11:30:41.894Z,7.13
2018-02-12T11:31:41.868Z,6.97
2018-02-12T11:32:42.102Z,6.76
2018-02-12T11:33:41.838Z,6.43
2018-02-12T11:34:41.812Z,6.34
2018-02-12T11:35:41.803Z,6.28
2018-02-12T11:36:41.790Z,6.15
2018-02-12T11:37:42.014Z,6.18
2018-02-12T11:38:41.758Z,6.36
2018-02-12T11:39:41.727Z,6.46
2018-02-12T11:40:41.723Z,6.30
2018-02-12T11:41:41.690Z,6.12
2018-02-12T11:42:41.927Z,5.90
2018-02-12T11:43:41.655Z,5.79
2018-02-12T11:44:41.636Z,5.60
2018-02-12T11:45:41.619Z,5.40
2018-02-12T11:46:41.599Z,5.36
2018-02-12T11:47:41.872Z,5.22
2018-02-12T11:48:41.566Z,5.17
2018-02-12T11:49:41.548Z,5.03
2018-02-12T11:50:41.526Z,5.09
2018-02-12T11:51:41.515Z,5.03
2018-02-12T11:52:41.847Z,4.99
2018-02-12T11:53:41.473Z,5.02
2018-02-12T11:54:41.461Z,4.92
2018-02-12T11:55:41.433Z,4.88
2018-02-12T11:56:41.416Z,4.84
2018-02-12T11:57:41.402Z,4.85
2018-02-12T11:58:41.384Z,4.80
2018-02-12T11:59:41.363Z,4.86
2018-02-12T12:00:41.342Z,4.92
2018-02-12T12:01:41.325Z,4.86
2018-02-12T12:02:41.308Z,4.80
2018-02-12T12:03:41.283Z,5.09
2018-02-12T12:04:41.274Z,5.22
2018-02-12T12:05:41.247Z,5.13
2018-02-12T12:06:41.228Z,5.13
2018-02-12T12:07:41.212Z,5.22
2018-02-12T12:08:41.445Z,5.21
2018-02-12T12:09:41.171Z,5.18
2018-02-12T12:10:41.156Z,5.28
2018-02-12T12:11:41.136Z,5.33
2018-02-12T12:12:41.121Z,6.36
2018-02-12T12:13:41.350Z,6.31
2018-02-12T12:14:41.076Z,7.39
2018-02-12T12:15:41.057Z,7.61
2018-02-12T12:16:41.048Z,7.52
2018-02-12T12:17:41.024Z,7.07
2018-02-12T12:18:41.006Z,6.80
2018-02-12T12:19:40.986Z,6.56
2018-02-12T12:20:40.966Z,6.34
2018-02-12T12:21:40.955Z,6.15
2018-02-12T12:22:40.941Z,6.22
2018-02-12T12:23:40.911Z,6.17
2018-02-12T12:24:40.904Z,6.34
2018-02-12T12:25:40.878Z,7.77
2018-02-12T12:26:40.862Z,8.28
2018-02-12T12:27:40.841Z,9.13
2018-02-12T12:28:41.075Z,9.60
2018-02-12T12:29:40.808Z,10.82
2018-02-12T12:30:40.792Z,12.05
2018-02-12T12:31:40.778Z,12.79
2018-02-12T12:32:40.761Z,12.04
2018-02-12T12:33:40.995Z,11.39
2018-02-12T12:34:40.735Z,12.04
2018-02-12T12:35:40.718Z,11.75
2018-02-12T12:36:40.707Z,11.44
2018-02-12T12:37:40.692Z,11.70
2018-02-12T12:38:40.935Z,10.91
2018-02-12T12:39:40.666Z,10.97
2018-02-12T12:40:40.657Z,11.57
2018-02-12T12:41:40.644Z,11.17
2018-02-12T12:42:40.627Z,10.41
2018-02-12T12:43:40.624Z,11.25
2018-02-12T12:44:40.607Z,12.21
2018-02-12T12:45:40.595Z,12.90
2018-02-12T12:46:40.585Z,13.42
2018-02-12T12:47:40.573Z,13.48
2018-02-12T12:48:40.565Z,13.85
2018-02-12T12:49:40.557Z,13.73
2018-02-12T12:50:40.547Z,13.88
2018-02-12T12:51:40.544Z,14.03
2018-02-12T12:52:40.532Z,14.03
2018-02-12T12:53:40.524Z,14.39
2018-02-12T12:54:40.516Z,14.60
2018-02-12T12:55:40.510Z,14.98
2018-02-12T12:56:40.505Z,15.44
2018-02-12T12:57:40.495Z,15.16
2018-02-12T12:58:40.492Z,15.11
2018-02-12T12:59:40.494Z,14.51
2018-02-12T13:00:40.479Z,13.78
2018-02-12T13:01:40.487Z,12.78
2018-02-12T13:02:40.479Z,13.17
2018-02-12T13:03:40.466Z,13.67
2018-02-12T13:04:40.711Z,13.51
2018-02-12T13:05:40.512Z,13.59
2018-02-12T13:06:40.458Z,13.84
2018-02-12T13:07:40.548Z,14.45
2018-02-12T13:08:40.449Z,14.98
2018-02-12T13:09:40.788Z,13.73